sensor_id;sensor_type;location;lat;lon;timestamp;P1;durP1;ratioP1;P2;durP2;ratioP2
56653;SDS011;45096;52.302;4.634;2022-09-29T00:00:23;2.65;;;2.47;;
56653;SDS011;45096;52.302;4.634;2022-09-29T00:02:49;2.20;;;2.10;;
56653;SDS011;45096;52.302;4.634;2022-09-29T00:05:14;2.50;;;2.30;;
56653;SDS011;45096;52.302;4.634;2022-09-29T00:07:41;2.17;;;2.00;;
56653;SDS011;45096;52.302;4.634;2022-09-29T00:10:06;2.50;;;2.40;;
56653;SDS011;45096;52.302;4.634;2022-09-29T00:12:32;2.70;;;2.50;;
56653;SDS011;45096;52.302;4.634;2022-09-29T00:14:58;2.97;;;2.20;;
56653;SDS011;45096;52.302;4.634;2022-09-29T00:17:23;2.30;;;2.20;;
56653;SDS011;45096;52.302;4.634;2022-09-29T00:19:49;2.53;;;2.33;;
56653;SDS011;45096;52.302;4.634;2022-09-29T00:22:14;2.75;;;2.38;;
56653;SDS011;45096;52.302;4.634;2022-09-29T00:24:41;2.13;;;2.03;;
56653;SDS011;45096;52.302;4.634;2022-09-29T00:27:06;2.58;;;2.47;;
56653;SDS011;45096;52.302;4.634;2022-09-29T00:29:32;2.72;;;2.40;;
56653;SDS011;45096;52.302;4.634;2022-09-29T00:31:57;2.17;;;2.00;;
56653;SDS011;45096;52.302;4.634;2022-09-29T00:34:22;2.08;;;1.98;;
56653;SDS011;45096;52.302;4.634;2022-09-29T00:36:48;2.42;;;2.28;;
56653;SDS011;45096;52.302;4.634;2022-09-29T00:39:13;2.55;;;2.38;;
56653;SDS011;45096;52.302;4.634;2022-09-29T00:41:40;2.35;;;2.25;;
56653;SDS011;45096;52.302;4.634;2022-09-29T00:44:06;2.55;;;2.38;;
56653;SDS011;45096;52.302;4.634;2022-09-29T00:47:09;2.33;;;2.13;;
56653;SDS011;45096;52.302;4.634;2022-09-29T00:49:39;2.10;;;2.00;;
56653;SDS011;45096;52.302;4.634;2022-09-29T00:52:08;2.38;;;2.28;;
56653;SDS011;45096;52.302;4.634;2022-09-29T00:54:36;2.50;;;2.30;;
56653;SDS011;45096;52.302;4.634;2022-09-29T00:57:05;2.22;;;2.03;;
56653;SDS011;45096;52.302;4.634;2022-09-29T00:59:34;2.72;;;2.53;;
56653;SDS011;45096;52.302;4.634;2022-09-29T01:02:02;2.63;;;2.45;;
56653;SDS011;45096;52.302;4.634;2022-09-29T01:04:27;2.47;;;2.38;;
56653;SDS011;45096;52.302;4.634;2022-09-29T01:06:54;2.00;;;1.90;;
56653;SDS011;45096;52.302;4.634;2022-09-29T01:09:21;2.20;;;2.10;;
56653;SDS011;45096;52.302;4.634;2022-09-29T01:11:49;2.22;;;2.13;;
56653;SDS011;45096;52.302;4.634;2022-09-29T01:14:16;2.60;;;2.40;;
56653;SDS011;45096;52.302;4.634;2022-09-29T01:16:42;3.35;;;2.33;;
56653;SDS011;45096;52.302;4.634;2022-09-29T01:19:09;4.05;;;2.60;;
56653;SDS011;45096;52.302;4.634;2022-09-29T01:21:38;2.17;;;2.08;;
56653;SDS011;45096;52.302;4.634;2022-09-29T01:24:14;2.45;;;2.35;;
56653;SDS011;45096;52.302;4.634;2022-09-29T01:27:01;2.22;;;2.13;;
56653;SDS011;45096;52.302;4.634;2022-09-29T01:29:38;2.40;;;2.30;;
56653;SDS011;45096;52.302;4.634;2022-09-29T01:32:18;1.98;;;1.88;;
56653;SDS011;45096;52.302;4.634;2022-09-29T01:34:49;2.40;;;2.20;;
56653;SDS011;45096;52.302;4.634;2022-09-29T01:37:24;2.15;;;2.05;;
56653;SDS011;45096;52.302;4.634;2022-09-29T01:39:53;2.63;;;2.53;;
56653;SDS011;45096;52.302;4.634;2022-09-29T01:42:25;2.58;;;2.40;;
56653;SDS011;45096;52.302;4.634;2022-09-29T01:44:53;3.10;;;2.90;;
56653;SDS011;45096;52.302;4.634;2022-09-29T01:47:21;2.28;;;2.17;;
56653;SDS011;45096;52.302;4.634;2022-09-29T01:49:49;2.75;;;2.55;;
56653;SDS011;45096;52.302;4.634;2022-09-29T01:52:18;2.42;;;2.22;;
56653;SDS011;45096;52.302;4.634;2022-09-29T01:54:46;2.50;;;2.40;;
56653;SDS011;45096;52.302;4.634;2022-09-29T01:57:13;2.08;;;1.98;;
56653;SDS011;45096;52.302;4.634;2022-09-29T01:59:42;2.17;;;2.08;;
56653;SDS011;45096;52.302;4.634;2022-09-29T02:02:10;2.08;;;1.98;;
56653;SDS011;45096;52.302;4.634;2022-09-29T02:04:39;2.70;;;2.50;;
56653;SDS011;45096;52.302;4.634;2022-09-29T02:07:07;3.05;;;2.78;;
56653;SDS011;45096;52.302;4.634;2022-09-29T02:09:36;2.55;;;2.38;;
56653;SDS011;45096;52.302;4.634;2022-09-29T02:12:04;2.58;;;2.40;;
56653;SDS011;45096;52.302;4.634;2022-09-29T02:14:30;2.40;;;2.30;;
56653;SDS011;45096;52.302;4.634;2022-09-29T02:16:58;2.40;;;2.30;;
56653;SDS011;45096;52.302;4.634;2022-09-29T02:19:28;2.40;;;2.20;;
56653;SDS011;45096;52.302;4.634;2022-09-29T02:21:55;2.50;;;2.40;;
56653;SDS011;45096;52.302;4.634;2022-09-29T02:24:22;2.60;;;2.50;;
56653;SDS011;45096;52.302;4.634;2022-09-29T02:26:47;2.35;;;2.25;;
56653;SDS011;45096;52.302;4.634;2022-09-29T02:29:13;2.13;;;2.03;;
56653;SDS011;45096;52.302;4.634;2022-09-29T02:31:39;2.83;;;2.63;;
56653;SDS011;45096;52.302;4.634;2022-09-29T02:34:05;2.60;;;2.40;;
56653;SDS011;45096;52.302;4.634;2022-09-29T02:36:33;2.20;;;2.10;;
56653;SDS011;45096;52.302;4.634;2022-09-29T02:39:07;2.65;;;2.55;;
56653;SDS011;45096;52.302;4.634;2022-09-29T02:41:38;3.20;;;2.88;;
56653;SDS011;45096;52.302;4.634;2022-09-29T02:44:15;2.70;;;2.55;;
56653;SDS011;45096;52.302;4.634;2022-09-29T02:47:02;2.72;;;2.55;;
56653;SDS011;45096;52.302;4.634;2022-09-29T02:49:39;2.97;;;2.78;;
56653;SDS011;45096;52.302;4.634;2022-09-29T02:52:16;2.47;;;2.38;;
56653;SDS011;45096;52.302;4.634;2022-09-29T02:54:52;2.60;;;2.30;;
56653;SDS011;45096;52.302;4.634;2022-09-29T02:57:22;2.28;;;2.17;;
56653;SDS011;45096;52.302;4.634;2022-09-29T02:59:51;2.70;;;2.50;;
56653;SDS011;45096;52.302;4.634;2022-09-29T03:02:24;2.63;;;2.50;;
56653;SDS011;45096;52.302;4.634;2022-09-29T03:04:50;2.50;;;2.40;;
56653;SDS011;45096;52.302;4.634;2022-09-29T03:07:16;2.35;;;2.25;;
56653;SDS011;45096;52.302;4.634;2022-09-29T03:09:41;2.90;;;2.70;;
56653;SDS011;45096;52.302;4.634;2022-09-29T03:12:08;2.72;;;2.47;;
56653;SDS011;45096;52.302;4.634;2022-09-29T03:14:33;2.75;;;2.63;;
56653;SDS011;45096;52.302;4.634;2022-09-29T03:16:59;2.90;;;2.70;;
56653;SDS011;45096;52.302;4.634;2022-09-29T03:19:24;2.47;;;2.38;;
56653;SDS011;45096;52.302;4.634;2022-09-29T03:21:50;2.58;;;2.47;;
56653;SDS011;45096;52.302;4.634;2022-09-29T03:24:15;3.17;;;2.88;;
56653;SDS011;45096;52.302;4.634;2022-09-29T03:26:40;4.32;;;3.30;;
56653;SDS011;45096;52.302;4.634;2022-09-29T03:29:07;3.92;;;3.63;;
56653;SDS011;45096;52.302;4.634;2022-09-29T03:31:32;3.45;;;3.15;;
56653;SDS011;45096;52.302;4.634;2022-09-29T03:33:58;3.35;;;3.15;;
56653;SDS011;45096;52.302;4.634;2022-09-29T03:36:23;3.30;;;3.10;;
56653;SDS011;45096;52.302;4.634;2022-09-29T03:38:49;3.97;;;3.05;;
56653;SDS011;45096;52.302;4.634;2022-09-29T03:41:14;3.33;;;3.03;;
56653;SDS011;45096;52.302;4.634;2022-09-29T03:43:40;4.10;;;3.80;;
56653;SDS011;45096;52.302;4.634;2022-09-29T03:46:07;4.10;;;3.80;;
56653;SDS011;45096;52.302;4.634;2022-09-29T03:48:32;4.82;;;4.35;;
56653;SDS011;45096;52.302;4.634;2022-09-29T03:50:58;4.05;;;3.60;;
56653;SDS011;45096;52.302;4.634;2022-09-29T03:53:23;4.65;;;4.22;;
56653;SDS011;45096;52.302;4.634;2022-09-29T03:55:49;4.20;;;3.80;;
56653;SDS011;45096;52.302;4.634;2022-09-29T03:58:15;5.38;;;4.75;;
56653;SDS011;45096;52.302;4.634;2022-09-29T04:00:41;4.88;;;4.40;;
56653;SDS011;45096;52.302;4.634;2022-09-29T04:03:08;4.55;;;4.15;;
56653;SDS011;45096;52.302;4.634;2022-09-29T04:05:33;4.25;;;3.90;;
56653;SDS011;45096;52.302;4.634;2022-09-29T04:07:59;5.05;;;4.60;;
56653;SDS011;45096;52.302;4.634;2022-09-29T04:10:24;4.20;;;3.80;;
56653;SDS011;45096;52.302;4.634;2022-09-29T04:12:50;4.00;;;3.70;;
56653;SDS011;45096;52.302;4.634;2022-09-29T04:15:15;5.10;;;4.15;;
56653;SDS011;45096;52.302;4.634;2022-09-29T04:17:41;3.90;;;3.60;;
56653;SDS011;45096;52.302;4.634;2022-09-29T04:20:08;4.53;;;4.03;;
56653;SDS011;45096;52.302;4.634;2022-09-29T04:22:33;4.22;;;3.85;;
56653;SDS011;45096;52.302;4.634;2022-09-29T04:24:59;3.72;;;3.42;;
56653;SDS011;45096;52.302;4.634;2022-09-29T04:27:24;4.45;;;3.78;;
56653;SDS011;45096;52.302;4.634;2022-09-29T04:29:49;5.63;;;5.13;;
56653;SDS011;45096;52.302;4.634;2022-09-29T04:32:15;4.68;;;4.28;;
56653;SDS011;45096;52.302;4.634;2022-09-29T04:34:41;7.03;;;5.13;;
56653;SDS011;45096;52.302;4.634;2022-09-29T04:37:07;5.63;;;5.03;;
56653;SDS011;45096;52.302;4.634;2022-09-29T04:39:33;5.05;;;4.55;;
56653;SDS011;45096;52.302;4.634;2022-09-29T04:41:59;5.85;;;4.35;;
56653;SDS011;45096;52.302;4.634;2022-09-29T04:44:24;6.38;;;4.80;;
56653;SDS011;45096;52.302;4.634;2022-09-29T04:46:50;5.30;;;4.82;;
56653;SDS011;45096;52.302;4.634;2022-09-29T04:49:15;4.63;;;4.22;;
56653;SDS011;45096;52.302;4.634;2022-09-29T04:51:40;4.75;;;3.85;;
56653;SDS011;45096;52.302;4.634;2022-09-29T04:54:07;6.03;;;4.50;;
56653;SDS011;45096;52.302;4.634;2022-09-29T04:56:33;5.47;;;4.65;;
56653;SDS011;45096;52.302;4.634;2022-09-29T04:58:58;4.78;;;4.38;;
56653;SDS011;45096;52.302;4.634;2022-09-29T05:01:24;5.13;;;4.70;;
56653;SDS011;45096;52.302;4.634;2022-09-29T05:03:49;4.93;;;4.53;;
56653;SDS011;45096;52.302;4.634;2022-09-29T05:06:15;4.60;;;4.20;;
56653;SDS011;45096;52.302;4.634;2022-09-29T05:08:40;5.35;;;4.88;;
56653;SDS011;45096;52.302;4.634;2022-09-29T05:11:08;5.57;;;5.07;;
56653;SDS011;45096;52.302;4.634;2022-09-29T05:13:34;5.70;;;4.72;;
56653;SDS011;45096;52.302;4.634;2022-09-29T05:16:00;4.63;;;4.28;;
56653;SDS011;45096;52.302;4.634;2022-09-29T05:18:26;5.05;;;4.65;;
56653;SDS011;45096;52.302;4.634;2022-09-29T05:20:51;5.63;;;4.70;;
56653;SDS011;45096;52.302;4.634;2022-09-29T05:23:17;6.88;;;5.45;;
56653;SDS011;45096;52.302;4.634;2022-09-29T05:25:42;5.30;;;4.80;;
56653;SDS011;45096;52.302;4.634;2022-09-29T05:28:09;4.70;;;4.20;;
56653;SDS011;45096;52.302;4.634;2022-09-29T05:30:35;5.93;;;4.80;;
56653;SDS011;45096;52.302;4.634;2022-09-29T05:33:00;5.03;;;4.63;;
56653;SDS011;45096;52.302;4.634;2022-09-29T05:35:25;4.63;;;4.22;;
56653;SDS011;45096;52.302;4.634;2022-09-29T05:37:51;5.10;;;4.70;;
56653;SDS011;45096;52.302;4.634;2022-09-29T05:40:16;5.18;;;4.78;;
56653;SDS011;45096;52.302;4.634;2022-09-29T05:42:42;5.45;;;5.00;;
56653;SDS011;45096;52.302;4.634;2022-09-29T05:45:09;6.38;;;5.28;;
56653;SDS011;45096;52.302;4.634;2022-09-29T05:47:34;5.13;;;4.60;;
56653;SDS011;45096;52.302;4.634;2022-09-29T05:50:00;6.57;;;4.70;;
56653;SDS011;45096;52.302;4.634;2022-09-29T05:52:25;5.03;;;4.40;;
56653;SDS011;45096;52.302;4.634;2022-09-29T05:54:51;4.55;;;4.25;;
56653;SDS011;45096;52.302;4.634;2022-09-29T05:57:17;4.45;;;4.05;;
56653;SDS011;45096;52.302;4.634;2022-09-29T05:59:43;5.15;;;4.63;;
56653;SDS011;45096;52.302;4.634;2022-09-29T06:02:09;4.80;;;4.43;;
56653;SDS011;45096;52.302;4.634;2022-09-29T06:04:35;4.53;;;4.22;;
56653;SDS011;45096;52.302;4.634;2022-09-29T06:07:00;4.50;;;4.10;;
56653;SDS011;45096;52.302;4.634;2022-09-29T06:09:26;4.45;;;4.15;;
56653;SDS011;45096;52.302;4.634;2022-09-29T06:11:51;4.65;;;4.25;;
56653;SDS011;45096;52.302;4.634;2022-09-29T06:14:16;4.60;;;4.20;;
56653;SDS011;45096;52.302;4.634;2022-09-29T06:16:42;3.67;;;3.42;;
56653;SDS011;45096;52.302;4.634;2022-09-29T06:19:09;4.45;;;4.15;;
56653;SDS011;45096;52.302;4.634;2022-09-29T06:21:35;4.82;;;4.47;;
56653;SDS011;45096;52.302;4.634;2022-09-29T06:24:00;4.20;;;3.90;;
56653;SDS011;45096;52.302;4.634;2022-09-29T06:26:26;4.03;;;3.78;;
56653;SDS011;45096;52.302;4.634;2022-09-29T06:28:52;4.28;;;3.88;;
56653;SDS011;45096;52.302;4.634;2022-09-29T06:31:18;4.05;;;3.75;;
56653;SDS011;45096;52.302;4.634;2022-09-29T06:33:44;4.35;;;4.05;;
56653;SDS011;45096;52.302;4.634;2022-09-29T06:36:12;4.10;;;3.80;;
56653;SDS011;45096;52.302;4.634;2022-09-29T06:38:40;4.43;;;4.05;;
56653;SDS011;45096;52.302;4.634;2022-09-29T06:41:06;3.72;;;3.42;;
56653;SDS011;45096;52.302;4.634;2022-09-29T06:43:31;4.20;;;3.90;;
56653;SDS011;45096;52.302;4.634;2022-09-29T06:45:57;4.40;;;4.10;;
56653;SDS011;45096;52.302;4.634;2022-09-29T06:48:22;4.75;;;4.45;;
56653;SDS011;45096;52.302;4.634;2022-09-29T06:50:48;4.20;;;3.90;;
56653;SDS011;45096;52.302;4.634;2022-09-29T06:53:14;4.10;;;3.80;;
56653;SDS011;45096;52.302;4.634;2022-09-29T06:55:40;3.75;;;3.50;;
56653;SDS011;45096;52.302;4.634;2022-09-29T06:58:05;3.80;;;3.60;;
56653;SDS011;45096;52.302;4.634;2022-09-29T07:00:31;4.13;;;3.83;;
56653;SDS011;45096;52.302;4.634;2022-09-29T07:02:56;4.32;;;4.00;;
56653;SDS011;45096;52.302;4.634;2022-09-29T07:05:22;4.35;;;4.05;;
56653;SDS011;45096;52.302;4.634;2022-09-29T07:07:47;4.80;;;4.40;;
56653;SDS011;45096;52.302;4.634;2022-09-29T07:10:14;4.22;;;3.92;;
56653;SDS011;45096;52.302;4.634;2022-09-29T07:12:40;4.70;;;4.30;;
56653;SDS011;45096;52.302;4.634;2022-09-29T07:15:06;4.57;;;4.20;;
56653;SDS011;45096;52.302;4.634;2022-09-29T07:17:32;4.70;;;4.00;;
56653;SDS011;45096;52.302;4.634;2022-09-29T07:19:57;4.72;;;4.32;;
56653;SDS011;45096;52.302;4.634;2022-09-29T07:22:23;3.65;;;3.45;;
56653;SDS011;45096;52.302;4.634;2022-09-29T07:24:48;4.72;;;4.32;;
56653;SDS011;45096;52.302;4.634;2022-09-29T07:27:15;3.97;;;3.63;;
56653;SDS011;45096;52.302;4.634;2022-09-29T07:29:40;4.15;;;3.83;;
56653;SDS011;45096;52.302;4.634;2022-09-29T07:32:06;4.70;;;4.40;;
56653;SDS011;45096;52.302;4.634;2022-09-29T07:34:31;5.60;;;5.20;;
56653;SDS011;45096;52.302;4.634;2022-09-29T07:36:56;3.72;;;3.53;;
56653;SDS011;45096;52.302;4.634;2022-09-29T07:39:22;4.50;;;4.20;;
56653;SDS011;45096;52.302;4.634;2022-09-29T07:41:48;5.05;;;4.57;;
56653;SDS011;45096;52.302;4.634;2022-09-29T07:44:14;4.00;;;3.72;;
56653;SDS011;45096;52.302;4.634;2022-09-29T07:46:41;4.80;;;4.40;;
56653;SDS011;45096;52.302;4.634;2022-09-29T07:49:06;4.82;;;4.40;;
56653;SDS011;45096;52.302;4.634;2022-09-29T07:51:32;5.70;;;5.25;;
56653;SDS011;45096;52.302;4.634;2022-09-29T07:54:00;4.95;;;4.55;;
56653;SDS011;45096;52.302;4.634;2022-09-29T07:56:25;5.78;;;5.18;;
56653;SDS011;45096;52.302;4.634;2022-09-29T07:58:51;4.35;;;4.05;;
56653;SDS011;45096;52.302;4.634;2022-09-29T08:01:18;4.88;;;4.57;;
56653;SDS011;45096;52.302;4.634;2022-09-29T08:03:47;5.15;;;4.70;;
56653;SDS011;45096;52.302;4.634;2022-09-29T08:06:14;4.05;;;3.75;;
56653;SDS011;45096;52.302;4.634;2022-09-29T08:08:40;3.92;;;3.63;;
56653;SDS011;45096;52.302;4.634;2022-09-29T08:11:06;4.60;;;4.22;;
56653;SDS011;45096;52.302;4.634;2022-09-29T08:13:32;4.75;;;4.35;;
56653;SDS011;45096;52.302;4.634;2022-09-29T08:15:58;4.32;;;4.03;;
56653;SDS011;45096;52.302;4.634;2022-09-29T08:18:25;5.22;;;4.45;;
56653;SDS011;45096;52.302;4.634;2022-09-29T08:20:51;4.75;;;4.35;;
56653;SDS011;45096;52.302;4.634;2022-09-29T08:23:16;4.93;;;4.60;;
56653;SDS011;45096;52.302;4.634;2022-09-29T08:25:42;5.05;;;4.65;;
56653;SDS011;45096;52.302;4.634;2022-09-29T08:28:07;4.57;;;4.18;;
56653;SDS011;45096;52.302;4.634;2022-09-29T08:30:32;5.07;;;4.68;;
56653;SDS011;45096;52.302;4.634;2022-09-29T08:32:58;4.90;;;4.53;;
56653;SDS011;45096;52.302;4.634;2022-09-29T08:35:25;4.68;;;4.28;;
56653;SDS011;45096;52.302;4.634;2022-09-29T08:37:51;5.10;;;4.80;;
56653;SDS011;45096;52.302;4.634;2022-09-29T08:40:17;5.07;;;4.68;;
56653;SDS011;45096;52.302;4.634;2022-09-29T08:42:45;6.68;;;6.07;;
56653;SDS011;45096;52.302;4.634;2022-09-29T08:45:15;5.28;;;4.78;;
56653;SDS011;45096;52.302;4.634;2022-09-29T08:47:48;5.43;;;4.93;;
56653;SDS011;45096;52.302;4.634;2022-09-29T08:50:19;5.30;;;4.90;;
56653;SDS011;45096;52.302;4.634;2022-09-29T08:52:49;7.32;;;6.72;;
56653;SDS011;45096;52.302;4.634;2022-09-29T08:55:21;6.25;;;5.65;;
56653;SDS011;45096;52.302;4.634;2022-09-29T08:57:51;5.55;;;5.05;;
56653;SDS011;45096;52.302;4.634;2022-09-29T09:00:20;6.40;;;5.80;;
56653;SDS011;45096;52.302;4.634;2022-09-29T09:02:57;6.72;;;5.85;;
56653;SDS011;45096;52.302;4.634;2022-09-29T09:05:32;6.97;;;6.38;;
56653;SDS011;45096;52.302;4.634;2022-09-29T09:08:12;5.97;;;5.40;;
56653;SDS011;45096;52.302;4.634;2022-09-29T09:10:43;6.53;;;5.93;;
56653;SDS011;45096;52.302;4.634;2022-09-29T09:13:13;7.28;;;6.57;;
56653;SDS011;45096;52.302;4.634;2022-09-29T09:15:46;7.25;;;6.65;;
56653;SDS011;45096;52.302;4.634;2022-09-29T09:18:29;4.40;;;4.07;;
56653;SDS011;45096;52.302;4.634;2022-09-29T09:21:01;5.97;;;5.47;;
56653;SDS011;45096;52.302;4.634;2022-09-29T09:23:33;6.75;;;6.20;;
56653;SDS011;45096;52.302;4.634;2022-09-29T09:26:04;8.60;;;7.63;;
56653;SDS011;45096;52.302;4.634;2022-09-29T09:28:31;5.22;;;4.75;;
56653;SDS011;45096;52.302;4.634;2022-09-29T09:30:59;8.77;;;7.53;;
56653;SDS011;45096;52.302;4.634;2022-09-29T09:33:28;6.00;;;5.50;;
56653;SDS011;45096;52.302;4.634;2022-09-29T09:35:57;10.98;;;8.05;;
56653;SDS011;45096;52.302;4.634;2022-09-29T09:38:26;7.30;;;6.60;;
56653;SDS011;45096;52.302;4.634;2022-09-29T09:40:54;10.55;;;8.68;;
56653;SDS011;45096;52.302;4.634;2022-09-29T09:43:23;7.25;;;6.55;;
56653;SDS011;45096;52.302;4.634;2022-09-29T09:45:53;7.60;;;6.63;;
56653;SDS011;45096;52.302;4.634;2022-09-29T09:48:23;9.88;;;8.50;;
56653;SDS011;45096;52.302;4.634;2022-09-29T09:50:51;6.85;;;6.25;;
56653;SDS011;45096;52.302;4.634;2022-09-29T09:53:18;9.48;;;7.65;;
56653;SDS011;45096;52.302;4.634;2022-09-29T09:55:46;8.30;;;7.18;;
56653;SDS011;45096;52.302;4.634;2022-09-29T09:58:24;9.60;;;7.88;;
56653;SDS011;45096;52.302;4.634;2022-09-29T10:00:55;6.88;;;6.18;;
56653;SDS011;45096;52.302;4.634;2022-09-29T10:03:21;6.85;;;6.25;;
56653;SDS011;45096;52.302;4.634;2022-09-29T10:05:47;10.45;;;9.05;;
56653;SDS011;45096;52.302;4.634;2022-09-29T10:08:14;6.05;;;5.50;;
56653;SDS011;45096;52.302;4.634;2022-09-29T10:10:44;7.43;;;6.63;;
56653;SDS011;45096;52.302;4.634;2022-09-29T10:13:11;8.75;;;7.85;;
56653;SDS011;45096;52.302;4.634;2022-09-29T10:15:39;8.32;;;6.93;;
56653;SDS011;45096;52.302;4.634;2022-09-29T10:18:10;8.27;;;7.47;;
56653;SDS011;45096;52.302;4.634;2022-09-29T10:20:38;8.35;;;7.55;;
56653;SDS011;45096;52.302;4.634;2022-09-29T10:23:19;8.07;;;7.07;;
56653;SDS011;45096;52.302;4.634;2022-09-29T10:25:53;6.80;;;6.10;;
56653;SDS011;45096;52.302;4.634;2022-09-29T10:28:23;6.18;;;5.57;;
56653;SDS011;45096;52.302;4.634;2022-09-29T10:30:49;5.72;;;5.22;;
56653;SDS011;45096;52.302;4.634;2022-09-29T10:33:16;5.97;;;5.40;;
56653;SDS011;45096;52.302;4.634;2022-09-29T10:35:43;6.05;;;5.55;;
56653;SDS011;45096;52.302;4.634;2022-09-29T10:38:14;4.85;;;4.47;;
56653;SDS011;45096;52.302;4.634;2022-09-29T10:40:45;6.00;;;5.45;;
56653;SDS011;45096;52.302;4.634;2022-09-29T10:43:21;5.97;;;5.38;;
56653;SDS011;45096;52.302;4.634;2022-09-29T10:45:49;5.28;;;4.88;;
56653;SDS011;45096;52.302;4.634;2022-09-29T10:48:15;5.78;;;5.18;;
56653;SDS011;45096;52.302;4.634;2022-09-29T10:50:47;5.72;;;5.22;;
56653;SDS011;45096;52.302;4.634;2022-09-29T10:53:16;5.95;;;5.45;;
56653;SDS011;45096;52.302;4.634;2022-09-29T10:55:46;6.13;;;5.53;;
56653;SDS011;45096;52.302;4.634;2022-09-29T10:58:17;5.72;;;5.22;;
56653;SDS011;45096;52.302;4.634;2022-09-29T11:00:46;6.00;;;5.40;;
56653;SDS011;45096;52.302;4.634;2022-09-29T11:03:15;5.32;;;4.90;;
56653;SDS011;45096;52.302;4.634;2022-09-29T11:05:46;6.05;;;4.35;;
56653;SDS011;45096;52.302;4.634;2022-09-29T11:08:15;4.65;;;4.25;;
56653;SDS011;45096;52.302;4.634;2022-09-29T11:10:40;5.03;;;4.53;;
56653;SDS011;45096;52.302;4.634;2022-09-29T11:16:03;3.80;;;3.50;;
56653;SDS011;45096;52.302;4.634;2022-09-29T11:18:31;4.10;;;3.72;;
56653;SDS011;45096;52.302;4.634;2022-09-29T11:21:01;4.65;;;4.28;;
56653;SDS011;45096;52.302;4.634;2022-09-29T11:23:30;3.58;;;3.28;;
56653;SDS011;45096;52.302;4.634;2022-09-29T11:26:10;4.13;;;3.40;;
56653;SDS011;45096;52.302;4.634;2022-09-29T11:29:01;3.40;;;3.20;;
56653;SDS011;45096;52.302;4.634;2022-09-29T11:31:54;4.47;;;3.28;;
56653;SDS011;45096;52.302;4.634;2022-09-29T11:37:15;3.25;;;2.95;;
56653;SDS011;45096;52.302;4.634;2022-09-29T11:39:45;2.47;;;2.38;;
56653;SDS011;45096;52.302;4.634;2022-09-29T11:42:19;2.45;;;2.35;;
56653;SDS011;45096;52.302;4.634;2022-09-29T11:44:54;2.65;;;2.55;;
56653;SDS011;45096;52.302;4.634;2022-09-29T11:47:27;2.20;;;2.10;;
56653;SDS011;45096;52.302;4.634;2022-09-29T11:50:09;2.83;;;2.63;;
56653;SDS011;45096;52.302;4.634;2022-09-29T11:52:45;2.55;;;2.35;;
56653;SDS011;45096;52.302;4.634;2022-09-29T11:55:27;2.38;;;2.20;;
56653;SDS011;45096;52.302;4.634;2022-09-29T11:58:00;2.30;;;2.10;;
56653;SDS011;45096;52.302;4.634;2022-09-29T12:00:38;2.28;;;2.17;;
56653;SDS011;45096;52.302;4.634;2022-09-29T12:03:24;3.67;;;2.15;;
56653;SDS011;45096;52.302;4.634;2022-09-29T12:05:56;2.50;;;2.35;;
56653;SDS011;45096;52.302;4.634;2022-09-29T12:08:33;1.60;;;1.50;;
56653;SDS011;45096;52.302;4.634;2022-09-29T12:11:08;3.22;;;2.03;;
56653;SDS011;45096;52.302;4.634;2022-09-29T12:13:37;2.00;;;1.90;;
56653;SDS011;45096;52.302;4.634;2022-09-29T12:16:10;1.90;;;1.80;;
56653;SDS011;45096;52.302;4.634;2022-09-29T12:18:39;2.28;;;1.60;;
56653;SDS011;45096;52.302;4.634;2022-09-29T12:21:07;1.98;;;1.70;;
56653;SDS011;45096;52.302;4.634;2022-09-29T12:23:33;2.08;;;1.90;;
56653;SDS011;45096;52.302;4.634;2022-09-29T12:26:01;1.88;;;1.77;;
56653;SDS011;45096;52.302;4.634;2022-09-29T12:28:30;2.08;;;1.88;;
56653;SDS011;45096;52.302;4.634;2022-09-29T12:30:59;1.60;;;1.60;;
56653;SDS011;45096;52.302;4.634;2022-09-29T12:33:28;1.77;;;1.67;;
56653;SDS011;45096;52.302;4.634;2022-09-29T12:36:00;1.38;;;1.27;;
56653;SDS011;45096;52.302;4.634;2022-09-29T12:38:34;1.40;;;1.40;;
56653;SDS011;45096;52.302;4.634;2022-09-29T12:41:02;1.75;;;1.60;;
56653;SDS011;45096;52.302;4.634;2022-09-29T12:43:31;1.77;;;1.67;;
56653;SDS011;45096;52.302;4.634;2022-09-29T12:46:04;1.95;;;1.80;;
56653;SDS011;45096;52.302;4.634;2022-09-29T12:48:33;1.60;;;1.50;;
56653;SDS011;45096;52.302;4.634;2022-09-29T12:51:07;1.20;;;1.20;;
56653;SDS011;45096;52.302;4.634;2022-09-29T12:53:36;1.70;;;1.60;;
56653;SDS011;45096;52.302;4.634;2022-09-29T12:56:04;1.48;;;1.38;;
56653;SDS011;45096;52.302;4.634;2022-09-29T12:58:35;1.50;;;1.40;;
56653;SDS011;45096;52.302;4.634;2022-09-29T13:01:18;1.55;;;1.45;;
56653;SDS011;45096;52.302;4.634;2022-09-29T13:03:50;1.40;;;1.30;;
56653;SDS011;45096;52.302;4.634;2022-09-29T13:06:38;1.63;;;1.52;;
56653;SDS011;45096;52.302;4.634;2022-09-29T13:12:22;0.85;;;0.85;;
56653;SDS011;45096;52.302;4.634;2022-09-29T13:14:57;1.02;;;1.02;;
56653;SDS011;45096;52.302;4.634;2022-09-29T13:17:38;1.17;;;1.15;;
56653;SDS011;45096;52.302;4.634;2022-09-29T13:23:05;1.00;;;1.00;;
56653;SDS011;45096;52.302;4.634;2022-09-29T13:25:38;0.90;;;0.90;;
56653;SDS011;45096;52.302;4.634;2022-09-29T13:28:14;0.90;;;0.90;;
56653;SDS011;45096;52.302;4.634;2022-09-29T13:30:47;0.80;;;0.80;;
56653;SDS011;45096;52.302;4.634;2022-09-29T13:33:14;0.70;;;0.70;;
56653;SDS011;45096;52.302;4.634;2022-09-29T13:35:42;0.90;;;0.90;;
56653;SDS011;45096;52.302;4.634;2022-09-29T13:38:13;0.77;;;0.77;;
56653;SDS011;45096;52.302;4.634;2022-09-29T13:40:40;0.73;;;0.73;;
56653;SDS011;45096;52.302;4.634;2022-09-29T13:43:36;1.15;;;0.80;;
56653;SDS011;45096;52.302;4.634;2022-09-29T13:46:06;1.00;;;1.00;;
56653;SDS011;45096;52.302;4.634;2022-09-29T13:48:51;0.68;;;0.68;;
56653;SDS011;45096;52.302;4.634;2022-09-29T13:51:21;0.70;;;0.70;;
56653;SDS011;45096;52.302;4.634;2022-09-29T13:53:53;0.65;;;0.60;;
56653;SDS011;45096;52.302;4.634;2022-09-29T13:56:45;0.90;;;0.90;;
56653;SDS011;45096;52.302;4.634;2022-09-29T13:59:12;0.60;;;0.60;;
56653;SDS011;45096;52.302;4.634;2022-09-29T14:01:38;0.70;;;0.70;;
56653;SDS011;45096;52.302;4.634;2022-09-29T14:07:02;0.90;;;0.90;;
56653;SDS011;45096;52.302;4.634;2022-09-29T14:09:31;0.77;;;0.77;;
56653;SDS011;45096;52.302;4.634;2022-09-29T14:11:59;1.05;;;0.77;;
56653;SDS011;45096;52.302;4.634;2022-09-29T14:14:28;0.70;;;0.70;;
56653;SDS011;45096;52.302;4.634;2022-09-29T14:16:56;0.80;;;0.80;;
56653;SDS011;45096;52.302;4.634;2022-09-29T14:19:36;0.80;;;0.80;;
56653;SDS011;45096;52.302;4.634;2022-09-29T14:25:30;1.45;;;0.63;;
56653;SDS011;45096;52.302;4.634;2022-09-29T14:28:18;0.77;;;0.77;;
56653;SDS011;45096;52.302;4.634;2022-09-29T14:30:46;0.90;;;0.90;;
56653;SDS011;45096;52.302;4.634;2022-09-29T14:33:14;0.70;;;0.70;;
56653;SDS011;45096;52.302;4.634;2022-09-29T14:35:42;1.00;;;1.00;;
56653;SDS011;45096;52.302;4.634;2022-09-29T14:38:11;0.70;;;0.70;;
56653;SDS011;45096;52.302;4.634;2022-09-29T14:40:40;0.80;;;0.80;;
56653;SDS011;45096;52.302;4.634;2022-09-29T14:43:18;0.95;;;0.95;;
56653;SDS011;45096;52.302;4.634;2022-09-29T14:48:41;0.90;;;0.90;;
56653;SDS011;45096;52.302;4.634;2022-09-29T14:51:13;1.25;;;0.80;;
56653;SDS011;45096;52.302;4.634;2022-09-29T14:53:46;1.00;;;1.00;;
56653;SDS011;45096;52.302;4.634;2022-09-29T14:56:26;0.73;;;0.68;;
56653;SDS011;45096;52.302;4.634;2022-09-29T14:59:02;1.60;;;0.80;;
56653;SDS011;45096;52.302;4.634;2022-09-29T15:01:32;0.70;;;0.70;;
56653;SDS011;45096;52.302;4.634;2022-09-29T15:04:03;0.73;;;0.73;;
56653;SDS011;45096;52.302;4.634;2022-09-29T15:06:30;1.17;;;0.95;;
56653;SDS011;45096;52.302;4.634;2022-09-29T15:08:56;0.82;;;0.82;;
56653;SDS011;45096;52.302;4.634;2022-09-29T15:11:27;1.75;;;1.13;;
56653;SDS011;45096;52.302;4.634;2022-09-29T15:13:56;0.68;;;0.68;;
56653;SDS011;45096;52.302;4.634;2022-09-29T15:16:24;0.90;;;0.90;;
56653;SDS011;45096;52.302;4.634;2022-09-29T15:19:01;1.02;;;0.90;;